createdAt,value
2018-08-25T00:00:22.920Z,20.70
2018-08-25T00:02:51.784Z,20.70
2018-08-25T00:05:20.616Z,20.80
2018-08-25T00:07:49.444Z,20.70
2018-08-25T00:10:18.339Z,20.70
2018-08-25T00:12:47.157Z,20.70
2018-08-25T00:15:16.036Z,20.70
2018-08-25T00:17:44.914Z,20.70
2018-08-25T00:20:13.768Z,20.70
2018-08-25T00:22:42.615Z,20.70
2018-08-25T00:25:11.450Z,20.70
2018-08-25T00:27:40.275Z,20.70
2018-08-25T00:30:14.737Z,20.70
2018-08-25T00:32:43.571Z,20.80
2018-08-25T00:35:12.449Z,20.70
2018-08-25T00:37:41.255Z,20.70
2018-08-25T00:40:10.346Z,20.60
2018-08-25T00:42:39.269Z,20.60
2018-08-25T00:45:08.192Z,20.60
2018-08-25T00:47:37.125Z,20.60
2018-08-25T00:50:05.991Z,20.60
2018-08-25T00:52:35.113Z,20.60
2018-08-25T00:55:04.410Z,20.60
2018-08-25T00:57:33.397Z,20.60
2018-08-25T01:00:02.431Z,20.50
2018-08-25T01:02:31.278Z,20.60
2018-08-25T01:05:00.162Z,20.50
2018-08-25T01:07:29.146Z,20.60
2018-08-25T01:09:57.929Z,20.50
2018-08-25T01:12:26.810Z,20.50
2018-08-25T01:14:55.650Z,20.40
2018-08-25T01:17:24.459Z,20.40
2018-08-25T01:19:53.313Z,20.40
2018-08-25T01:22:22.178Z,20.40
2018-08-25T01:24:50.995Z,20.40
2018-08-25T01:27:20.171Z,20.40
2018-08-25T01:29:49.002Z,20.50
2018-08-25T01:32:21.043Z,20.50
2018-08-25T01:34:49.862Z,20.40
2018-08-25T01:37:18.754Z,20.50
2018-08-25T01:39:47.616Z,20.40
2018-08-25T01:42:16.436Z,20.50
2018-08-25T01:44:45.495Z,20.50
2018-08-25T01:47:14.442Z,20.50
2018-08-25T01:49:43.259Z,20.50
2018-08-25T01:52:12.077Z,20.50
2018-08-25T01:54:40.923Z,20.50
2018-08-25T01:57:09.947Z,20.50
2018-08-25T01:59:38.844Z,20.50
2018-08-25T02:02:07.695Z,20.40
2018-08-25T02:04:36.534Z,20.40
2018-08-25T02:07:05.501Z,20.40
2018-08-25T02:09:34.506Z,20.40
2018-08-25T02:12:03.324Z,20.40
2018-08-25T02:14:32.167Z,20.40
2018-08-25T02:17:01.035Z,20.40
2018-08-25T02:19:29.847Z,20.40
2018-08-25T02:21:58.965Z,20.40
2018-08-25T02:24:27.791Z,20.40
2018-08-25T02:26:56.675Z,20.40
2018-08-25T02:29:25.532Z,20.30
2018-08-25T02:31:54.360Z,20.30
2018-08-25T02:34:23.415Z,20.30
2018-08-25T02:36:52.343Z,20.30
2018-08-25T02:39:21.160Z,20.20
2018-08-25T02:41:49.982Z,20.20
2018-08-25T02:44:18.804Z,20.20
2018-08-25T02:46:47.862Z,20.20
2018-08-25T02:49:16.714Z,20.30
2018-08-25T02:51:45.546Z,20.30
2018-08-25T02:54:14.373Z,20.30
2018-08-25T02:56:43.235Z,20.20
2018-08-25T02:59:12.320Z,20.20
2018-08-25T03:01:41.162Z,20.20
2018-08-25T03:04:09.987Z,20.20
2018-08-25T03:06:38.834Z,20.20
2018-08-25T03:09:10.203Z,20.10
2018-08-25T03:11:39.231Z,20.20
2018-08-25T03:14:08.288Z,20.20
2018-08-25T03:16:37.135Z,20.20
2018-08-25T03:19:05.980Z,20.30
2018-08-25T03:21:34.814Z,20.20
2018-08-25T03:24:03.686Z,20.30
2018-08-25T03:26:32.602Z,20.20
2018-08-25T03:29:01.571Z,20.20
2018-08-25T03:31:30.409Z,20.20
2018-08-25T03:33:59.233Z,20.20
2018-08-25T03:36:28.087Z,20.20
2018-08-25T03:38:56.907Z,20.20
2018-08-25T03:41:25.747Z,20.20
2018-08-25T03:43:54.555Z,20.20
2018-08-25T03:46:23.699Z,20.30
2018-08-25T03:48:52.602Z,20.20
2018-08-25T03:51:21.414Z,20.10
2018-08-25T03:53:50.491Z,20.10
2018-08-25T03:56:19.730Z,20.10
2018-08-25T03:58:48.567Z,20.10
2018-08-25T04:01:17.404Z,20.10
2018-08-25T04:03:46.271Z,20.10
2018-08-25T04:06:15.168Z,20.10
2018-08-25T04:08:43.986Z,20.10
2018-08-25T04:11:12.867Z,20.10
2018-08-25T04:13:41.707Z,20.10
2018-08-25T04:16:10.622Z,20.10
2018-08-25T04:18:39.434Z,20.10
2018-08-25T04:21:08.275Z,20.00
2018-08-25T04:23:37.161Z,20.10
2018-08-25T04:26:06.336Z,20.10
2018-08-25T04:28:35.156Z,20.10
2018-08-25T04:31:03.989Z,20.10
2018-08-25T04:33:32.816Z,20.00
2018-08-25T04:36:01.654Z,20.10
2018-08-25T04:38:30.452Z,20.00
2018-08-25T04:40:59.279Z,20.00
2018-08-25T04:43:28.116Z,19.90
2018-08-25T04:45:57.003Z,19.90
2018-08-25T04:48:25.820Z,19.90
2018-08-25T04:50:54.627Z,19.90
2018-08-25T04:53:23.466Z,19.90
2018-08-25T04:55:52.364Z,20.00
2018-08-25T04:58:21.175Z,19.90
2018-08-25T05:00:50.035Z,20.00
2018-08-25T05:03:18.907Z,20.00
2018-08-25T05:05:47.867Z,20.00
2018-08-25T05:08:16.732Z,20.10
2018-08-25T05:10:45.547Z,20.00
2018-08-25T05:13:14.354Z,20.00
2018-08-25T05:15:43.300Z,19.90
2018-08-25T05:18:12.151Z,20.00
2018-08-25T05:20:41.049Z,20.10
2018-08-25T05:23:09.902Z,20.10
2018-08-25T05:25:38.867Z,20.10
2018-08-25T05:28:07.706Z,20.00
2018-08-25T05:30:36.554Z,20.00
2018-08-25T05:33:05.404Z,20.00
2018-08-25T05:35:34.379Z,20.00
2018-08-25T05:38:03.253Z,20.00
2018-08-25T05:40:32.198Z,20.00
2018-08-25T05:43:01.178Z,20.10
2018-08-25T05:45:30.087Z,20.00
2018-08-25T05:47:58.958Z,20.00
2018-08-25T05:50:27.823Z,19.90
2018-08-25T05:52:56.703Z,19.90
2018-08-25T05:55:25.663Z,19.90
2018-08-25T05:57:54.558Z,20.00
2018-08-25T06:00:23.423Z,20.10
2018-08-25T06:02:52.231Z,20.10
2018-08-25T06:05:21.118Z,20.10
2018-08-25T06:07:49.963Z,20.10
2018-08-25T06:10:18.793Z,20.10
2018-08-25T06:12:47.628Z,20.20
2018-08-25T06:15:16.471Z,20.20
2018-08-25T06:17:45.368Z,20.20
2018-08-25T06:20:14.159Z,20.20
2018-08-25T06:22:42.981Z,20.20
2018-08-25T06:25:11.832Z,20.20
2018-08-25T06:27:40.737Z,20.20
2018-08-25T06:30:09.679Z,20.30
2018-08-25T06:32:38.477Z,20.30
2018-08-25T06:35:08.224Z,20.20
2018-08-25T06:37:37.100Z,20.30
2018-08-25T06:40:06.087Z,20.20
2018-08-25T06:42:34.986Z,20.20
2018-08-25T06:45:03.852Z,20.30
2018-08-25T06:47:32.772Z,20.20
2018-08-25T06:50:01.623Z,20.20
2018-08-25T06:52:30.514Z,20.20
2018-08-25T06:54:59.375Z,20.20
2018-08-25T06:57:28.252Z,20.20
2018-08-25T06:59:57.128Z,20.30
2018-08-25T07:02:26.364Z,20.20
2018-08-25T07:04:55.211Z,20.30
2018-08-25T07:07:24.075Z,20.30
2018-08-25T07:09:52.954Z,20.30
2018-08-25T07:12:22.605Z,20.20
2018-08-25T07:14:51.706Z,20.20
2018-08-25T07:17:20.581Z,20.20
2018-08-25T07:19:49.592Z,20.10
2018-08-25T07:22:18.431Z,20.10
2018-08-25T07:24:47.264Z,20.10
2018-08-25T07:27:16.164Z,20.10
2018-08-25T07:29:44.987Z,20.20
2018-08-25T07:32:13.909Z,20.20
2018-08-25T07:34:42.693Z,20.20
2018-08-25T07:37:11.631Z,20.20
2018-08-25T07:39:40.555Z,20.30
2018-08-25T07:42:09.356Z,20.20
2018-08-25T07:44:38.283Z,20.30
2018-08-25T07:47:07.171Z,20.30
2018-08-25T07:49:36.082Z,20.30
2018-08-25T07:52:04.950Z,20.30
2018-08-25T07:54:33.808Z,20.20
2018-08-25T07:57:02.731Z,20.10
2018-08-25T07:59:31.551Z,20.10
2018-08-25T08:02:00.412Z,20.10
2018-08-25T08:04:29.252Z,20.20
2018-08-25T08:06:58.256Z,20.20
2018-08-25T08:09:27.108Z,20.20
2018-08-25T08:11:56.017Z,20.20
2018-08-25T08:14:24.811Z,20.20
2018-08-25T08:16:53.759Z,20.10
2018-08-25T08:19:22.595Z,20.10
2018-08-25T08:21:51.500Z,20.10
2018-08-25T08:24:20.303Z,20.10
2018-08-25T08:26:49.263Z,20.20
2018-08-25T08:29:18.072Z,20.10
2018-08-25T08:31:46.919Z,20.10
2018-08-25T08:34:15.751Z,20.10
2018-08-25T08:36:44.660Z,20.10
2018-08-25T08:39:13.555Z,20.10
2018-08-25T08:41:42.379Z,20.10
2018-08-25T08:44:11.374Z,20.10
2018-08-25T08:46:40.344Z,20.20
2018-08-25T08:49:09.186Z,20.20
2018-08-25T08:51:38.265Z,20.20
2018-08-25T08:54:07.153Z,20.00
2018-08-25T08:56:36.106Z,20.10
2018-08-25T08:59:04.964Z,20.10
2018-08-25T09:01:33.811Z,20.10
2018-08-25T09:04:02.638Z,20.00
2018-08-25T09:06:31.583Z,19.90
2018-08-25T09:09:00.427Z,19.60
2018-08-25T09:11:29.359Z,19.70
2018-08-25T09:13:58.135Z,19.70
2018-08-25T09:16:27.044Z,19.60
2018-08-25T09:18:55.878Z,19.60
2018-08-25T09:21:24.716Z,19.60
2018-08-25T09:23:53.568Z,19.70
2018-08-25T09:26:22.471Z,19.80
2018-08-25T09:28:51.324Z,19.90
2018-08-25T09:31:20.207Z,19.80
2018-08-25T09:33:49.279Z,19.70
2018-08-25T09:36:18.397Z,19.50
2018-08-25T09:38:47.100Z,19.50
2018-08-25T09:41:15.946Z,19.50
2018-08-25T09:43:44.778Z,19.50
2018-08-25T09:46:13.708Z,19.40
2018-08-25T09:48:42.539Z,19.60
2018-08-25T09:51:11.371Z,19.60
2018-08-25T09:53:40.229Z,19.60
2018-08-25T09:56:09.171Z,19.70
2018-08-25T09:58:38.011Z,19.70
2018-08-25T10:01:12.357Z,19.70
2018-08-25T10:03:41.197Z,19.60
2018-08-25T10:06:10.109Z,19.70
2018-08-25T10:08:39.012Z,19.80
2018-08-25T10:11:07.979Z,19.90
2018-08-25T10:13:36.895Z,19.80
2018-08-25T10:16:05.909Z,19.60
2018-08-25T10:18:34.828Z,19.70
2018-08-25T10:21:03.779Z,19.70
2018-08-25T10:23:32.706Z,19.80
2018-08-25T10:26:01.610Z,19.80
2018-08-25T10:28:30.524Z,19.70
2018-08-25T10:31:06.354Z,19.70
2018-08-25T10:33:35.215Z,19.70
2018-08-25T10:36:04.159Z,19.80
2018-08-25T10:38:33.031Z,19.80
2018-08-25T10:41:01.921Z,19.90
2018-08-25T10:43:30.799Z,19.90
2018-08-25T10:45:59.674Z,19.90
2018-08-25T10:48:28.570Z,19.90
2018-08-25T10:50:57.476Z,19.90
2018-08-25T10:53:26.388Z,19.90
2018-08-25T10:55:55.419Z,19.90
2018-08-25T10:58:24.285Z,19.90
2018-08-25T11:00:53.207Z,19.90
2018-08-25T11:03:21.955Z,19.90
2018-08-25T11:05:50.923Z,19.90
2018-08-25T11:08:19.907Z,19.80
2018-08-25T11:10:48.732Z,19.90
2018-08-25T11:13:17.576Z,19.90
2018-08-25T11:15:46.488Z,19.80
2018-08-25T11:18:15.364Z,19.80
2018-08-25T11:20:44.235Z,19.80
2018-08-25T11:23:13.072Z,19.80
2018-08-25T11:25:42.192Z,19.80
2018-08-25T11:28:11.137Z,19.80
2018-08-25T11:30:39.980Z,19.90
2018-08-25T11:33:08.907Z,19.80
2018-08-25T11:35:37.781Z,19.90
2018-08-25T11:38:06.772Z,19.90
2018-08-25T11:40:35.519Z,20.00
2018-08-25T11:43:04.392Z,19.90
2018-08-25T11:45:33.471Z,19.90
2018-08-25T11:48:02.311Z,19.90
2018-08-25T11:50:31.142Z,19.80
2018-08-25T11:52:59.955Z,19.80
2018-08-25T11:55:28.792Z,19.70
2018-08-25T11:57:57.634Z,19.70
2018-08-25T12:00:26.501Z,19.70
2018-08-25T12:02:55.364Z,19.60
2018-08-25T12:05:24.187Z,19.70
2018-08-25T12:07:53.030Z,19.60
2018-08-25T12:10:21.888Z,19.60
2018-08-25T12:12:50.735Z,19.60
2018-08-25T12:15:19.603Z,19.60
2018-08-25T12:17:48.447Z,19.60
2018-08-25T12:20:17.286Z,19.50
2018-08-25T12:22:46.116Z,19.60
2018-08-25T12:25:14.962Z,19.60
2018-08-25T12:27:43.908Z,19.60
2018-08-25T12:30:12.715Z,19.50
2018-08-25T12:32:41.543Z,19.50
2018-08-25T12:35:10.451Z,19.50
2018-08-25T12:37:39.334Z,19.50
2018-08-25T12:40:08.219Z,19.60
2018-08-25T12:42:37.087Z,19.50
2018-08-25T12:45:06.046Z,19.50
2018-08-25T12:47:34.904Z,19.50
2018-08-25T12:50:03.860Z,19.60
2018-08-25T12:52:32.716Z,19.60
2018-08-25T12:55:01.552Z,19.60
2018-08-25T12:57:30.528Z,19.60
2018-08-25T12:59:59.370Z,19.60
2018-08-25T13:02:28.188Z,19.60
2018-08-25T13:04:58.692Z,19.60
2018-08-25T13:07:27.642Z,19.60
2018-08-25T13:09:56.470Z,19.60
2018-08-25T13:12:25.318Z,19.60
2018-08-25T13:14:54.188Z,19.50
2018-08-25T13:17:23.079Z,19.50
2018-08-25T13:19:51.972Z,19.50
2018-08-25T13:22:20.802Z,19.50
2018-08-25T13:24:49.698Z,19.50
2018-08-25T13:27:18.600Z,19.50
2018-08-25T13:29:47.422Z,19.40
2018-08-25T13:32:16.279Z,19.40
2018-08-25T13:34:45.111Z,19.40
2018-08-25T13:37:14.064Z,19.30
2018-08-25T13:39:42.903Z,19.30
2018-08-25T13:42:11.723Z,19.20
2018-08-25T13:44:40.590Z,19.20
2018-08-25T13:47:09.530Z,19.10
2018-08-25T13:49:38.512Z,19.10
2018-08-25T13:52:07.444Z,19.00
2018-08-25T13:54:36.293Z,18.90
2018-08-25T13:57:05.194Z,18.90
2018-08-25T13:59:34.051Z,18.90
2018-08-25T14:02:02.975Z,18.90
2018-08-25T14:04:31.849Z,18.90
2018-08-25T14:07:00.734Z,18.80
2018-08-25T14:09:29.596Z,18.70
2018-08-25T14:11:58.400Z,18.70
2018-08-25T14:14:27.239Z,18.60
2018-08-25T14:16:56.079Z,18.60
2018-08-25T14:19:24.937Z,18.60
2018-08-25T14:21:53.772Z,18.60
2018-08-25T14:24:22.682Z,18.60
2018-08-25T14:26:51.576Z,18.60
2018-08-25T14:29:20.436Z,18.60
2018-08-25T14:31:49.499Z,18.60
2018-08-25T14:34:18.346Z,18.60
2018-08-25T14:36:47.298Z,18.60
2018-08-25T14:39:16.117Z,18.60
2018-08-25T14:41:45.005Z,18.60
2018-08-25T14:44:14.050Z,18.60
2018-08-25T14:46:43.188Z,18.60
2018-08-25T14:49:12.040Z,18.70
2018-08-25T14:51:40.905Z,18.70
2018-08-25T14:54:09.731Z,18.70
2018-08-25T14:56:38.919Z,18.60
2018-08-25T14:59:07.785Z,18.60
2018-08-25T15:01:36.607Z,18.60
2018-08-25T15:04:05.530Z,18.60
2018-08-25T15:06:34.417Z,18.50
2018-08-25T15:09:05.795Z,18.50
2018-08-25T15:11:34.604Z,18.50
2018-08-25T15:14:03.811Z,18.60
2018-08-25T15:16:32.775Z,18.60
2018-08-25T15:19:01.685Z,18.60
2018-08-25T15:21:30.515Z,18.60
2018-08-25T15:23:59.295Z,18.60
2018-08-25T15:26:28.319Z,18.60
2018-08-25T15:28:57.159Z,18.60
2018-08-25T15:31:26.253Z,18.70
2018-08-25T15:33:55.063Z,18.80
2018-08-25T15:36:23.974Z,18.80
2018-08-25T15:38:52.830Z,18.80
2018-08-25T15:41:21.698Z,18.90
2018-08-25T15:43:50.584Z,18.80
2018-08-25T15:46:19.535Z,18.80
2018-08-25T15:48:48.488Z,18.70
2018-08-25T15:51:17.339Z,18.70
2018-08-25T15:53:46.214Z,18.80
2018-08-25T15:56:15.100Z,18.80
2018-08-25T15:58:43.951Z,18.80
2018-08-25T16:01:12.788Z,18.90
2018-08-25T16:03:41.721Z,18.90
2018-08-25T16:06:10.589Z,18.80
2018-08-25T16:08:39.684Z,18.70
2018-08-25T16:11:08.512Z,18.70
2018-08-25T16:13:37.383Z,18.70
2018-08-25T16:16:06.243Z,18.70
2018-08-25T16:18:35.342Z,18.70
2018-08-25T16:21:04.281Z,18.60
2018-08-25T16:23:33.180Z,18.60
2018-08-25T16:26:02.361Z,18.60
2018-08-25T16:28:31.942Z,18.50
2018-08-25T16:31:00.851Z,18.60
2018-08-25T16:33:29.750Z,18.60
2018-08-25T16:35:58.667Z,18.60
2018-08-25T16:38:27.963Z,18.60
2018-08-25T16:40:57.305Z,18.50
2018-08-25T16:43:26.191Z,18.50
2018-08-25T16:45:55.133Z,18.40
2018-08-25T16:48:23.964Z,18.40
2018-08-25T16:50:53.089Z,18.40
2018-08-25T16:53:21.945Z,18.40
2018-08-25T16:55:50.918Z,18.40
2018-08-25T16:58:19.751Z,18.40
2018-08-25T17:00:48.591Z,18.40
2018-08-25T17:03:18.030Z,18.40
2018-08-25T17:05:46.990Z,18.30
2018-08-25T17:08:15.867Z,18.40
2018-08-25T17:10:44.775Z,18.30
2018-08-25T17:13:13.607Z,18.30
2018-08-25T17:15:42.475Z,18.30
2018-08-25T17:18:11.345Z,18.20
2018-08-25T17:20:40.223Z,18.20
2018-08-25T17:23:09.045Z,18.30
2018-08-25T17:25:37.920Z,18.20
2018-08-25T17:28:07.432Z,18.30
2018-08-25T17:30:36.430Z,18.30
2018-08-25T17:33:05.489Z,18.20
2018-08-25T17:35:34.371Z,18.20
2018-08-25T17:38:03.355Z,18.20
2018-08-25T17:40:32.220Z,18.10
2018-08-25T17:43:01.060Z,18.10
2018-08-25T17:45:29.899Z,18.10
2018-08-25T17:47:58.876Z,18.00
2018-08-25T17:50:28.897Z,18.00
2018-08-25T17:52:57.784Z,18.00
2018-08-25T17:55:26.653Z,18.00
2018-08-25T17:57:55.563Z,18.00
2018-08-25T18:00:24.427Z,18.00
2018-08-25T18:02:53.279Z,17.90
2018-08-25T18:05:22.148Z,17.90
2018-08-25T18:07:51.211Z,17.80
2018-08-25T18:10:20.088Z,17.80
2018-08-25T18:12:48.940Z,17.80
2018-08-25T18:15:17.811Z,17.80
2018-08-25T18:17:46.673Z,17.80
2018-08-25T18:20:16.358Z,17.80
2018-08-25T18:22:45.247Z,17.80
2018-08-25T18:25:14.088Z,17.90
2018-08-25T18:27:42.959Z,18.00
2018-08-25T18:30:11.896Z,18.00
2018-08-25T18:32:40.731Z,18.10
2018-08-25T18:35:09.588Z,18.10
2018-08-25T18:37:38.431Z,18.10
2018-08-25T18:40:07.368Z,18.00
2018-08-25T18:42:36.239Z,17.90
2018-08-25T18:45:05.320Z,17.80
2018-08-25T18:47:34.339Z,17.80
2018-08-25T18:50:03.271Z,17.80
2018-08-25T18:52:32.143Z,17.70
2018-08-25T18:55:01.059Z,17.70
2018-08-25T18:57:29.964Z,17.70
2018-08-25T18:59:58.758Z,17.70
2018-08-25T19:02:28.028Z,17.70
2018-08-25T19:04:56.839Z,17.60
2018-08-25T19:07:25.761Z,17.70
2018-08-25T19:09:55.488Z,17.60
2018-08-25T19:12:24.358Z,17.60
2018-08-25T19:14:53.192Z,17.60
2018-08-25T19:17:22.085Z,17.50
2018-08-25T19:19:50.959Z,17.50
2018-08-25T19:22:20.423Z,17.50
2018-08-25T19:24:49.300Z,17.50
2018-08-25T19:27:18.538Z,17.40
2018-08-25T19:29:47.403Z,17.50
2018-08-25T19:32:16.825Z,17.50
2018-08-25T19:34:45.722Z,17.60
2018-08-25T19:37:14.683Z,17.60
2018-08-25T19:39:43.512Z,17.60
2018-08-25T19:42:12.871Z,17.60
2018-08-25T19:44:41.807Z,17.60
2018-08-25T19:47:11.668Z,17.50
2018-08-25T19:49:40.456Z,17.60
2018-08-25T19:52:09.516Z,17.60
2018-08-25T19:54:38.428Z,17.60
2018-08-25T19:57:07.332Z,17.70
2018-08-25T19:59:36.159Z,17.70
2018-08-25T20:02:05.467Z,17.60
2018-08-25T20:04:34.319Z,17.60
2018-08-25T20:07:03.195Z,17.50
2018-08-25T20:09:32.193Z,17.30
2018-08-25T20:12:01.031Z,17.20
2018-08-25T20:14:29.967Z,17.10
2018-08-25T20:16:58.864Z,17.20
2018-08-25T20:19:27.706Z,17.20
2018-08-25T20:21:56.571Z,17.10
2018-08-25T20:24:26.175Z,17.10
2018-08-25T20:26:55.148Z,17.00
2018-08-25T20:29:24.479Z,17.00
2018-08-25T20:31:53.442Z,17.00
2018-08-25T20:34:22.255Z,17.00
2018-08-25T20:36:51.130Z,17.10
2018-08-25T20:39:19.986Z,17.10
2018-08-25T20:41:48.823Z,17.10
2018-08-25T20:44:17.652Z,17.10
2018-08-25T20:46:46.568Z,17.00
2018-08-25T20:49:15.403Z,17.00
2018-08-25T20:51:44.251Z,16.90
2018-08-25T20:54:13.099Z,16.90
2018-08-25T20:56:42.006Z,16.80
2018-08-25T20:59:10.842Z,16.90
2018-08-25T21:01:39.803Z,16.90
2018-08-25T21:04:09.111Z,16.90
2018-08-25T21:06:38.068Z,16.90
2018-08-25T21:09:09.295Z,16.90
2018-08-25T21:11:38.176Z,16.90
2018-08-25T21:14:07.668Z,16.90
2018-08-25T21:16:36.687Z,16.90
2018-08-25T21:19:05.575Z,16.80
2018-08-25T21:21:34.411Z,16.90
2018-08-25T21:24:04.035Z,16.90
2018-08-25T21:26:33.027Z,16.90
2018-08-25T21:29:01.871Z,16.90
2018-08-25T21:31:30.694Z,16.80
2018-08-25T21:33:59.540Z,16.80
2018-08-25T21:36:28.492Z,16.90
2018-08-25T21:38:57.339Z,16.90
2018-08-25T21:41:26.203Z,16.90
2018-08-25T21:43:55.039Z,17.00
2018-08-25T21:46:23.939Z,16.90
2018-08-25T21:48:52.795Z,16.90
2018-08-25T21:51:21.660Z,16.90
2018-08-25T21:53:50.494Z,16.90
2018-08-25T21:56:19.405Z,16.80
2018-08-25T21:58:48.240Z,16.80
2018-08-25T22:01:17.198Z,16.80
2018-08-25T22:03:45.980Z,16.80
2018-08-25T22:06:14.870Z,16.90
2018-08-25T22:08:46.634Z,16.80
2018-08-25T22:11:16.557Z,16.80
2018-08-25T22:13:45.976Z,16.70
2018-08-25T22:16:15.492Z,16.70
2018-08-25T22:18:44.699Z,16.70
2018-08-25T22:21:13.638Z,16.70
2018-08-25T22:23:43.256Z,16.60
2018-08-25T22:26:12.169Z,16.70
2018-08-25T22:28:41.021Z,16.80
2018-08-25T22:31:09.851Z,16.80
2018-08-25T22:33:38.714Z,16.90
2018-08-25T22:36:07.595Z,16.90
2018-08-25T22:38:36.435Z,16.80
2018-08-25T22:41:05.346Z,16.80
2018-08-25T22:43:34.747Z,16.80
2018-08-25T22:46:03.913Z,16.80
2018-08-25T22:48:32.808Z,16.80
2018-08-25T22:51:01.622Z,16.80
2018-08-25T22:53:30.466Z,16.90
2018-08-25T22:55:59.300Z,16.90
2018-08-25T22:58:28.111Z,16.90
2018-08-25T23:00:56.936Z,16.90
2018-08-25T23:03:25.752Z,16.90
2018-08-25T23:05:54.679Z,17.00
2018-08-25T23:08:23.498Z,17.00
2018-08-25T23:10:52.312Z,17.00
2018-08-25T23:13:21.131Z,16.90
2018-08-25T23:15:50.188Z,16.80
2018-08-25T23:18:19.000Z,16.80
2018-08-25T23:20:47.808Z,16.70
2018-08-25T23:23:16.688Z,16.70
2018-08-25T23:25:45.606Z,16.60
2018-08-25T23:28:14.579Z,16.60
2018-08-25T23:30:43.421Z,16.50
2018-08-25T23:33:12.235Z,16.50
2018-08-25T23:35:41.176Z,16.50
2018-08-25T23:38:09.979Z,16.50
2018-08-25T23:40:38.944Z,16.60
2018-08-25T23:43:07.774Z,16.70
2018-08-25T23:45:36.627Z,16.70
2018-08-25T23:48:05.578Z,16.80
2018-08-25T23:50:34.458Z,16.80
2018-08-25T23:53:03.423Z,16.60
2018-08-25T23:55:32.259Z,16.50
2018-08-25T23:58:01.076Z,16.40
